sensor_id;sensor_type;location;lat;lon;timestamp;P1;durP1;ratioP1;P2;durP2;ratioP2
22219;SDS011;11279;48.364;10.904;2024-01-06T00:00:35;28.10;;;17.43;;
22219;SDS011;11279;48.364;10.904;2024-01-06T00:01:36;26.73;;;17.67;;
22219;SDS011;11279;48.364;10.904;2024-01-06T00:02:36;25.37;;;15.83;;
22219;SDS011;11279;48.364;10.904;2024-01-06T00:03:37;29.77;;;18.90;;
22219;SDS011;11279;48.364;10.904;2024-01-06T00:04:37;25.17;;;17.53;;
22219;SDS011;11279;48.364;10.904;2024-01-06T00:05:38;25.83;;;16.87;;
22219;SDS011;11279;48.364;10.904;2024-01-06T00:06:38;26.10;;;17.47;;
22219;SDS011;11279;48.364;10.904;2024-01-06T00:07:38;28.17;;;18.07;;
22219;SDS011;11279;48.364;10.904;2024-01-06T00:08:39;24.63;;;16.10;;
22219;SDS011;11279;48.364;10.904;2024-01-06T00:09:39;25.90;;;17.90;;
22219;SDS011;11279;48.364;10.904;2024-01-06T00:10:40;28.03;;;17.60;;
22219;SDS011;11279;48.364;10.904;2024-01-06T00:11:40;30.40;;;19.30;;
22219;SDS011;11279;48.364;10.904;2024-01-06T00:12:41;25.77;;;17.67;;
22219;SDS011;11279;48.364;10.904;2024-01-06T00:13:41;23.30;;;16.40;;
22219;SDS011;11279;48.364;10.904;2024-01-06T00:14:41;36.30;;;20.20;;
22219;SDS011;11279;48.364;10.904;2024-01-06T00:15:45;24.38;;;15.45;;
22219;SDS011;11279;48.364;10.904;2024-01-06T00:16:45;26.40;;;17.27;;
22219;SDS011;11279;48.364;10.904;2024-01-06T00:17:45;25.87;;;16.97;;
22219;SDS011;11279;48.364;10.904;2024-01-06T00:18:46;21.30;;;15.93;;
22219;SDS011;11279;48.364;10.904;2024-01-06T00:19:47;23.20;;;16.70;;
22219;SDS011;11279;48.364;10.904;2024-01-06T00:20:51;28.50;;;17.95;;
22219;SDS011;11279;48.364;10.904;2024-01-06T00:21:51;27.30;;;16.40;;
22219;SDS011;11279;48.364;10.904;2024-01-06T00:22:52;24.00;;;17.00;;
22219;SDS011;11279;48.364;10.904;2024-01-06T00:23:52;33.43;;;21.73;;
22219;SDS011;11279;48.364;10.904;2024-01-06T00:24:53;29.30;;;18.90;;
22219;SDS011;11279;48.364;10.904;2024-01-06T00:25:53;29.53;;;19.27;;
22219;SDS011;11279;48.364;10.904;2024-01-06T00:26:54;29.63;;;19.40;;
22219;SDS011;11279;48.364;10.904;2024-01-06T00:27:54;28.73;;;18.77;;
22219;SDS011;11279;48.364;10.904;2024-01-06T00:28:54;29.20;;;19.27;;
22219;SDS011;11279;48.364;10.904;2024-01-06T00:29:55;31.10;;;19.73;;
22219;SDS011;11279;48.364;10.904;2024-01-06T00:30:55;24.87;;;17.07;;
22219;SDS011;11279;48.364;10.904;2024-01-06T00:31:56;25.67;;;16.60;;
22219;SDS011;11279;48.364;10.904;2024-01-06T00:32:56;26.93;;;19.10;;
22219;SDS011;11279;48.364;10.904;2024-01-06T00:33:57;28.13;;;17.93;;
22219;SDS011;11279;48.364;10.904;2024-01-06T00:34:57;25.43;;;17.43;;
22219;SDS011;11279;48.364;10.904;2024-01-06T00:35:57;23.40;;;16.03;;
22219;SDS011;11279;48.364;10.904;2024-01-06T00:36:58;22.27;;;16.33;;
22219;SDS011;11279;48.364;10.904;2024-01-06T00:37:58;26.23;;;16.97;;
22219;SDS011;11279;48.364;10.904;2024-01-06T00:39:00;23.85;;;17.27;;
22219;SDS011;11279;48.364;10.904;2024-01-06T00:40:00;28.27;;;18.80;;
22219;SDS011;11279;48.364;10.904;2024-01-06T00:41:01;26.17;;;18.43;;
22219;SDS011;11279;48.364;10.904;2024-01-06T00:42:02;26.97;;;17.93;;
22219;SDS011;11279;48.364;10.904;2024-01-06T00:43:02;24.73;;;17.63;;
22219;SDS011;11279;48.364;10.904;2024-01-06T00:44:03;24.13;;;15.73;;
22219;SDS011;11279;48.364;10.904;2024-01-06T00:45:03;23.70;;;16.90;;
22219;SDS011;11279;48.364;10.904;2024-01-06T00:46:05;26.00;;;16.63;;
22219;SDS011;11279;48.364;10.904;2024-01-06T00:47:06;24.17;;;17.60;;
22219;SDS011;11279;48.364;10.904;2024-01-06T00:48:06;29.47;;;18.77;;
22219;SDS011;11279;48.364;10.904;2024-01-06T00:49:07;26.80;;;17.50;;
22219;SDS011;11279;48.364;10.904;2024-01-06T00:50:07;26.10;;;17.70;;
22219;SDS011;11279;48.364;10.904;2024-01-06T00:51:08;21.57;;;15.47;;
22219;SDS011;11279;48.364;10.904;2024-01-06T00:52:08;24.67;;;18.13;;
22219;SDS011;11279;48.364;10.904;2024-01-06T00:53:09;27.83;;;17.90;;
22219;SDS011;11279;48.364;10.904;2024-01-06T00:54:09;29.63;;;17.83;;
22219;SDS011;11279;48.364;10.904;2024-01-06T00:55:10;27.40;;;18.17;;
22219;SDS011;11279;48.364;10.904;2024-01-06T00:56:10;43.57;;;23.37;;
22219;SDS011;11279;48.364;10.904;2024-01-06T00:57:10;42.80;;;24.07;;
22219;SDS011;11279;48.364;10.904;2024-01-06T00:58:11;34.90;;;21.03;;
22219;SDS011;11279;48.364;10.904;2024-01-06T00:59:12;48.47;;;25.03;;
22219;SDS011;11279;48.364;10.904;2024-01-06T01:00:12;33.87;;;20.97;;
22219;SDS011;11279;48.364;10.904;2024-01-06T01:01:13;34.93;;;21.27;;
22219;SDS011;11279;48.364;10.904;2024-01-06T01:02:13;29.10;;;19.57;;
22219;SDS011;11279;48.364;10.904;2024-01-06T01:03:14;37.77;;;22.00;;
22219;SDS011;11279;48.364;10.904;2024-01-06T01:04:14;32.13;;;19.53;;
22219;SDS011;11279;48.364;10.904;2024-01-06T01:05:15;32.17;;;20.10;;
22219;SDS011;11279;48.364;10.904;2024-01-06T01:06:15;27.93;;;18.10;;
22219;SDS011;11279;48.364;10.904;2024-01-06T01:07:16;26.17;;;17.17;;
22219;SDS011;11279;48.364;10.904;2024-01-06T01:08:16;28.50;;;18.53;;
22219;SDS011;11279;48.364;10.904;2024-01-06T01:09:17;29.70;;;19.47;;
22219;SDS011;11279;48.364;10.904;2024-01-06T01:10:17;28.50;;;17.77;;
22219;SDS011;11279;48.364;10.904;2024-01-06T01:11:17;27.83;;;18.67;;
22219;SDS011;11279;48.364;10.904;2024-01-06T01:12:18;44.27;;;23.70;;
22219;SDS011;11279;48.364;10.904;2024-01-06T01:13:18;31.27;;;20.07;;
22219;SDS011;11279;48.364;10.904;2024-01-06T01:14:19;34.40;;;18.67;;
22219;SDS011;11279;48.364;10.904;2024-01-06T01:15:19;27.63;;;17.90;;
22219;SDS011;11279;48.364;10.904;2024-01-06T01:16:20;31.27;;;18.40;;
22219;SDS011;11279;48.364;10.904;2024-01-06T01:17:20;22.50;;;15.97;;
22219;SDS011;11279;48.364;10.904;2024-01-06T01:18:20;30.30;;;17.90;;
22219;SDS011;11279;48.364;10.904;2024-01-06T01:19:21;26.20;;;17.33;;
22219;SDS011;11279;48.364;10.904;2024-01-06T01:20:21;29.83;;;19.83;;
22219;SDS011;11279;48.364;10.904;2024-01-06T01:21:22;30.03;;;19.43;;
22219;SDS011;11279;48.364;10.904;2024-01-06T01:22:22;28.00;;;19.23;;
22219;SDS011;11279;48.364;10.904;2024-01-06T01:23:22;30.43;;;19.93;;
22219;SDS011;11279;48.364;10.904;2024-01-06T01:24:23;28.53;;;19.10;;
22219;SDS011;11279;48.364;10.904;2024-01-06T01:25:23;34.07;;;20.27;;
22219;SDS011;11279;48.364;10.904;2024-01-06T01:26:24;44.87;;;23.77;;
22219;SDS011;11279;48.364;10.904;2024-01-06T01:27:24;28.63;;;18.63;;
22219;SDS011;11279;48.364;10.904;2024-01-06T01:28:25;33.67;;;20.47;;
22219;SDS011;11279;48.364;10.904;2024-01-06T01:29:25;26.37;;;18.17;;
22219;SDS011;11279;48.364;10.904;2024-01-06T01:30:26;27.93;;;19.13;;
22219;SDS011;11279;48.364;10.904;2024-01-06T01:31:27;25.23;;;18.00;;
22219;SDS011;11279;48.364;10.904;2024-01-06T01:32:28;24.40;;;17.03;;
22219;SDS011;11279;48.364;10.904;2024-01-06T01:33:28;38.47;;;21.93;;
22219;SDS011;11279;48.364;10.904;2024-01-06T01:34:28;30.33;;;19.00;;
22219;SDS011;11279;48.364;10.904;2024-01-06T01:35:29;26.17;;;17.27;;
22219;SDS011;11279;48.364;10.904;2024-01-06T01:36:29;27.30;;;18.87;;
22219;SDS011;11279;48.364;10.904;2024-01-06T01:37:30;25.53;;;18.27;;
22219;SDS011;11279;48.364;10.904;2024-01-06T01:38:30;29.37;;;19.50;;
22219;SDS011;11279;48.364;10.904;2024-01-06T01:39:30;26.53;;;18.40;;
22219;SDS011;11279;48.364;10.904;2024-01-06T01:40:31;29.40;;;19.43;;
22219;SDS011;11279;48.364;10.904;2024-01-06T01:41:31;25.50;;;18.23;;
22219;SDS011;11279;48.364;10.904;2024-01-06T01:42:32;29.20;;;19.10;;
22219;SDS011;11279;48.364;10.904;2024-01-06T01:43:33;26.58;;;18.10;;
22219;SDS011;11279;48.364;10.904;2024-01-06T01:44:33;28.20;;;19.10;;
22219;SDS011;11279;48.364;10.904;2024-01-06T01:45:34;24.23;;;17.67;;
22219;SDS011;11279;48.364;10.904;2024-01-06T01:46:34;29.73;;;19.37;;
22219;SDS011;11279;48.364;10.904;2024-01-06T01:47:35;20.17;;;14.37;;
22219;SDS011;11279;48.364;10.904;2024-01-06T01:48:36;22.70;;;15.55;;
22219;SDS011;11279;48.364;10.904;2024-01-06T01:49:37;27.57;;;18.33;;
22219;SDS011;11279;48.364;10.904;2024-01-06T01:50:38;21.85;;;14.80;;
22219;SDS011;11279;48.364;10.904;2024-01-06T01:51:38;34.70;;;21.10;;
22219;SDS011;11279;48.364;10.904;2024-01-06T01:52:39;25.30;;;17.60;;
22219;SDS011;11279;48.364;10.904;2024-01-06T01:53:41;31.85;;;20.23;;
22219;SDS011;11279;48.364;10.904;2024-01-06T01:54:42;30.80;;;19.67;;
22219;SDS011;11279;48.364;10.904;2024-01-06T01:55:43;25.13;;;17.80;;
22219;SDS011;11279;48.364;10.904;2024-01-06T01:56:45;31.17;;;19.92;;
22219;SDS011;11279;48.364;10.904;2024-01-06T01:57:45;31.60;;;19.53;;
22219;SDS011;11279;48.364;10.904;2024-01-06T01:58:46;24.83;;;16.50;;
22219;SDS011;11279;48.364;10.904;2024-01-06T01:59:47;26.50;;;16.57;;
22219;SDS011;11279;48.364;10.904;2024-01-06T02:00:47;23.50;;;15.63;;
22219;SDS011;11279;48.364;10.904;2024-01-06T02:01:48;20.17;;;14.57;;
22219;SDS011;11279;48.364;10.904;2024-01-06T02:02:49;20.17;;;12.98;;
22219;SDS011;11279;48.364;10.904;2024-01-06T02:03:50;23.80;;;14.50;;
22219;SDS011;11279;48.364;10.904;2024-01-06T02:04:50;18.80;;;13.23;;
22219;SDS011;11279;48.364;10.904;2024-01-06T02:05:51;22.47;;;14.70;;
22219;SDS011;11279;48.364;10.904;2024-01-06T02:06:51;21.40;;;13.47;;
22219;SDS011;11279;48.364;10.904;2024-01-06T02:07:52;18.83;;;11.90;;
22219;SDS011;11279;48.364;10.904;2024-01-06T02:08:52;17.37;;;11.70;;
22219;SDS011;11279;48.364;10.904;2024-01-06T02:09:53;16.15;;;10.80;;
22219;SDS011;11279;48.364;10.904;2024-01-06T02:10:56;18.87;;;12.17;;
22219;SDS011;11279;48.364;10.904;2024-01-06T02:11:57;21.20;;;12.95;;
22219;SDS011;11279;48.364;10.904;2024-01-06T02:13:06;18.13;;;11.27;;
22219;SDS011;11279;48.364;10.904;2024-01-06T02:14:08;16.77;;;10.70;;
22219;SDS011;11279;48.364;10.904;2024-01-06T02:15:08;18.10;;;11.10;;
22219;SDS011;11279;48.364;10.904;2024-01-06T02:16:08;15.57;;;9.63;;
22219;SDS011;11279;48.364;10.904;2024-01-06T02:17:09;14.97;;;9.37;;
22219;SDS011;11279;48.364;10.904;2024-01-06T02:18:09;16.03;;;9.17;;
22219;SDS011;11279;48.364;10.904;2024-01-06T02:19:10;15.27;;;9.80;;
22219;SDS011;11279;48.364;10.904;2024-01-06T02:20:11;16.63;;;10.05;;
22219;SDS011;11279;48.364;10.904;2024-01-06T02:21:13;16.35;;;11.02;;
22219;SDS011;11279;48.364;10.904;2024-01-06T02:22:14;17.33;;;10.07;;
22219;SDS011;11279;48.364;10.904;2024-01-06T02:23:15;13.03;;;8.27;;
22219;SDS011;11279;48.364;10.904;2024-01-06T02:24:15;13.70;;;8.50;;
22219;SDS011;11279;48.364;10.904;2024-01-06T02:25:16;12.77;;;8.77;;
22219;SDS011;11279;48.364;10.904;2024-01-06T02:26:18;14.23;;;8.35;;
22219;SDS011;11279;48.364;10.904;2024-01-06T02:27:18;13.40;;;9.03;;
22219;SDS011;11279;48.364;10.904;2024-01-06T02:28:18;13.37;;;8.80;;
22219;SDS011;11279;48.364;10.904;2024-01-06T02:29:19;14.67;;;8.97;;
22219;SDS011;11279;48.364;10.904;2024-01-06T02:30:19;15.07;;;9.80;;
22219;SDS011;11279;48.364;10.904;2024-01-06T02:31:20;13.70;;;9.13;;
22219;SDS011;11279;48.364;10.904;2024-01-06T02:32:20;13.77;;;8.83;;
22219;SDS011;11279;48.364;10.904;2024-01-06T02:33:20;15.60;;;9.93;;
22219;SDS011;11279;48.364;10.904;2024-01-06T02:34:23;16.67;;;10.13;;
22219;SDS011;11279;48.364;10.904;2024-01-06T02:35:24;15.83;;;9.57;;
22219;SDS011;11279;48.364;10.904;2024-01-06T02:36:24;20.00;;;10.00;;
22219;SDS011;11279;48.364;10.904;2024-01-06T02:37:25;19.10;;;10.30;;
22219;SDS011;11279;48.364;10.904;2024-01-06T02:38:25;13.97;;;9.20;;
22219;SDS011;11279;48.364;10.904;2024-01-06T02:39:26;14.90;;;9.97;;
22219;SDS011;11279;48.364;10.904;2024-01-06T02:40:26;15.50;;;8.90;;
22219;SDS011;11279;48.364;10.904;2024-01-06T02:41:26;17.10;;;8.90;;
22219;SDS011;11279;48.364;10.904;2024-01-06T02:42:27;15.43;;;8.40;;
22219;SDS011;11279;48.364;10.904;2024-01-06T02:43:27;12.93;;;7.77;;
22219;SDS011;11279;48.364;10.904;2024-01-06T02:44:28;14.47;;;7.87;;
22219;SDS011;11279;48.364;10.904;2024-01-06T02:45:28;11.63;;;7.40;;
22219;SDS011;11279;48.364;10.904;2024-01-06T02:46:28;15.60;;;8.57;;
22219;SDS011;11279;48.364;10.904;2024-01-06T02:47:29;12.07;;;7.70;;
22219;SDS011;11279;48.364;10.904;2024-01-06T02:48:30;18.83;;;8.50;;
22219;SDS011;11279;48.364;10.904;2024-01-06T02:49:30;15.10;;;7.83;;
22219;SDS011;11279;48.364;10.904;2024-01-06T02:50:31;14.20;;;8.63;;
22219;SDS011;11279;48.364;10.904;2024-01-06T02:51:31;18.67;;;9.00;;
22219;SDS011;11279;48.364;10.904;2024-01-06T02:52:32;16.37;;;9.53;;
22219;SDS011;11279;48.364;10.904;2024-01-06T02:53:32;18.40;;;9.33;;
22219;SDS011;11279;48.364;10.904;2024-01-06T02:54:32;13.60;;;8.90;;
22219;SDS011;11279;48.364;10.904;2024-01-06T02:55:33;18.70;;;10.10;;
22219;SDS011;11279;48.364;10.904;2024-01-06T02:56:33;17.70;;;9.80;;
22219;SDS011;11279;48.364;10.904;2024-01-06T02:57:34;21.87;;;11.20;;
22219;SDS011;11279;48.364;10.904;2024-01-06T02:58:35;17.05;;;10.93;;
22219;SDS011;11279;48.364;10.904;2024-01-06T02:59:36;20.17;;;11.30;;
22219;SDS011;11279;48.364;10.904;2024-01-06T03:00:36;19.20;;;10.80;;
22219;SDS011;11279;48.364;10.904;2024-01-06T03:01:37;20.83;;;11.87;;
22219;SDS011;11279;48.364;10.904;2024-01-06T03:02:37;23.83;;;13.90;;
22219;SDS011;11279;48.364;10.904;2024-01-06T03:03:37;23.87;;;13.27;;
22219;SDS011;11279;48.364;10.904;2024-01-06T03:04:38;23.70;;;12.37;;
22219;SDS011;11279;48.364;10.904;2024-01-06T03:05:38;22.67;;;12.30;;
22219;SDS011;11279;48.364;10.904;2024-01-06T03:06:39;18.50;;;12.07;;
22219;SDS011;11279;48.364;10.904;2024-01-06T03:07:39;17.90;;;11.43;;
22219;SDS011;11279;48.364;10.904;2024-01-06T03:08:40;17.17;;;9.70;;
22219;SDS011;11279;48.364;10.904;2024-01-06T03:09:40;16.33;;;9.67;;
22219;SDS011;11279;48.364;10.904;2024-01-06T03:10:40;17.43;;;8.80;;
22219;SDS011;11279;48.364;10.904;2024-01-06T03:11:41;15.10;;;8.77;;
22219;SDS011;11279;48.364;10.904;2024-01-06T03:12:41;15.53;;;7.33;;
22219;SDS011;11279;48.364;10.904;2024-01-06T03:13:42;16.00;;;8.57;;
22219;SDS011;11279;48.364;10.904;2024-01-06T03:14:42;15.30;;;8.63;;
22219;SDS011;11279;48.364;10.904;2024-01-06T03:15:43;14.07;;;8.60;;
22219;SDS011;11279;48.364;10.904;2024-01-06T03:16:43;17.53;;;9.23;;
22219;SDS011;11279;48.364;10.904;2024-01-06T03:17:43;15.53;;;8.90;;
22219;SDS011;11279;48.364;10.904;2024-01-06T03:18:44;15.47;;;8.13;;
22219;SDS011;11279;48.364;10.904;2024-01-06T03:19:46;17.25;;;8.50;;
22219;SDS011;11279;48.364;10.904;2024-01-06T03:20:47;15.23;;;8.63;;
22219;SDS011;11279;48.364;10.904;2024-01-06T03:21:47;15.70;;;8.27;;
22219;SDS011;11279;48.364;10.904;2024-01-06T03:22:48;17.50;;;9.33;;
22219;SDS011;11279;48.364;10.904;2024-01-06T03:23:49;16.17;;;8.10;;
22219;SDS011;11279;48.364;10.904;2024-01-06T03:24:50;16.60;;;8.20;;
22219;SDS011;11279;48.364;10.904;2024-01-06T03:25:50;14.77;;;8.17;;
22219;SDS011;11279;48.364;10.904;2024-01-06T03:26:50;18.30;;;8.93;;
22219;SDS011;11279;48.364;10.904;2024-01-06T03:27:51;16.53;;;8.80;;
22219;SDS011;11279;48.364;10.904;2024-01-06T03:28:51;14.13;;;7.93;;
22219;SDS011;11279;48.364;10.904;2024-01-06T03:29:52;17.23;;;8.37;;
22219;SDS011;11279;48.364;10.904;2024-01-06T03:30:52;15.17;;;7.73;;
22219;SDS011;11279;48.364;10.904;2024-01-06T03:31:52;16.87;;;8.20;;
22219;SDS011;11279;48.364;10.904;2024-01-06T03:32:53;16.03;;;8.10;;
22219;SDS011;11279;48.364;10.904;2024-01-06T03:33:53;15.97;;;8.90;;
22219;SDS011;11279;48.364;10.904;2024-01-06T03:34:55;17.25;;;8.88;;
22219;SDS011;11279;48.364;10.904;2024-01-06T03:35:56;15.47;;;7.63;;
22219;SDS011;11279;48.364;10.904;2024-01-06T03:36:56;13.37;;;7.37;;
22219;SDS011;11279;48.364;10.904;2024-01-06T03:37:57;18.00;;;7.27;;
22219;SDS011;11279;48.364;10.904;2024-01-06T03:38:57;14.37;;;6.77;;
22219;SDS011;11279;48.364;10.904;2024-01-06T03:39:57;14.57;;;7.13;;
22219;SDS011;11279;48.364;10.904;2024-01-06T03:40:58;13.67;;;7.20;;
22219;SDS011;11279;48.364;10.904;2024-01-06T03:41:59;16.50;;;6.83;;
22219;SDS011;11279;48.364;10.904;2024-01-06T03:43:00;15.27;;;6.78;;
22219;SDS011;11279;48.364;10.904;2024-01-06T03:44:00;10.77;;;5.70;;
22219;SDS011;11279;48.364;10.904;2024-01-06T03:45:01;14.87;;;6.03;;
22219;SDS011;11279;48.364;10.904;2024-01-06T03:46:01;10.53;;;5.57;;
22219;SDS011;11279;48.364;10.904;2024-01-06T03:47:02;10.80;;;5.40;;
22219;SDS011;11279;48.364;10.904;2024-01-06T03:48:02;11.47;;;5.00;;
22219;SDS011;11279;48.364;10.904;2024-01-06T03:49:03;11.00;;;4.53;;
22219;SDS011;11279;48.364;10.904;2024-01-06T03:50:03;13.77;;;5.53;;
22219;SDS011;11279;48.364;10.904;2024-01-06T03:51:04;7.83;;;4.10;;
22219;SDS011;11279;48.364;10.904;2024-01-06T03:52:05;12.30;;;4.73;;
22219;SDS011;11279;48.364;10.904;2024-01-06T03:53:05;10.23;;;4.70;;
22219;SDS011;11279;48.364;10.904;2024-01-06T03:54:05;14.20;;;4.90;;
22219;SDS011;11279;48.364;10.904;2024-01-06T03:55:06;9.03;;;4.23;;
22219;SDS011;11279;48.364;10.904;2024-01-06T03:56:07;10.57;;;4.47;;
22219;SDS011;11279;48.364;10.904;2024-01-06T03:57:07;7.87;;;3.97;;
22219;SDS011;11279;48.364;10.904;2024-01-06T03:58:08;10.37;;;3.90;;
22219;SDS011;11279;48.364;10.904;2024-01-06T03:59:08;10.40;;;3.87;;
22219;SDS011;11279;48.364;10.904;2024-01-06T04:00:09;10.93;;;3.90;;
22219;SDS011;11279;48.364;10.904;2024-01-06T04:01:10;8.10;;;3.10;;
22219;SDS011;11279;48.364;10.904;2024-01-06T04:02:10;8.80;;;3.70;;
22219;SDS011;11279;48.364;10.904;2024-01-06T04:03:11;8.80;;;3.43;;
22219;SDS011;11279;48.364;10.904;2024-01-06T04:04:11;6.03;;;3.03;;
22219;SDS011;11279;48.364;10.904;2024-01-06T04:05:11;5.53;;;2.70;;
22219;SDS011;11279;48.364;10.904;2024-01-06T04:06:12;9.00;;;3.13;;
22219;SDS011;11279;48.364;10.904;2024-01-06T04:07:12;7.60;;;2.60;;
22219;SDS011;11279;48.364;10.904;2024-01-06T04:08:13;5.83;;;2.60;;
22219;SDS011;11279;48.364;10.904;2024-01-06T04:09:13;7.87;;;2.67;;
22219;SDS011;11279;48.364;10.904;2024-01-06T04:10:14;8.17;;;2.53;;
22219;SDS011;11279;48.364;10.904;2024-01-06T04:11:14;7.03;;;2.53;;
22219;SDS011;11279;48.364;10.904;2024-01-06T04:12:14;10.80;;;2.97;;
22219;SDS011;11279;48.364;10.904;2024-01-06T04:13:15;7.67;;;2.20;;
22219;SDS011;11279;48.364;10.904;2024-01-06T04:14:15;5.20;;;2.37;;
22219;SDS011;11279;48.364;10.904;2024-01-06T04:15:16;7.47;;;2.17;;
22219;SDS011;11279;48.364;10.904;2024-01-06T04:16:16;8.33;;;2.53;;
22219;SDS011;11279;48.364;10.904;2024-01-06T04:17:17;8.37;;;2.67;;
22219;SDS011;11279;48.364;10.904;2024-01-06T04:18:17;8.90;;;2.60;;
22219;SDS011;11279;48.364;10.904;2024-01-06T04:19:18;8.33;;;2.50;;
22219;SDS011;11279;48.364;10.904;2024-01-06T04:20:20;8.18;;;2.30;;
22219;SDS011;11279;48.364;10.904;2024-01-06T04:21:21;6.73;;;2.30;;
22219;SDS011;11279;48.364;10.904;2024-01-06T04:22:22;7.68;;;2.30;;
22219;SDS011;11279;48.364;10.904;2024-01-06T04:23:22;9.40;;;2.43;;
22219;SDS011;11279;48.364;10.904;2024-01-06T04:24:23;7.50;;;2.40;;
22219;SDS011;11279;48.364;10.904;2024-01-06T04:25:24;4.60;;;2.20;;
22219;SDS011;11279;48.364;10.904;2024-01-06T04:26:24;8.20;;;2.30;;
22219;SDS011;11279;48.364;10.904;2024-01-06T04:27:25;9.77;;;2.80;;
22219;SDS011;11279;48.364;10.904;2024-01-06T04:28:25;8.50;;;2.67;;
22219;SDS011;11279;48.364;10.904;2024-01-06T04:29:26;5.77;;;2.40;;
22219;SDS011;11279;48.364;10.904;2024-01-06T04:30:26;8.07;;;2.47;;
22219;SDS011;11279;48.364;10.904;2024-01-06T04:31:27;8.17;;;2.73;;
22219;SDS011;11279;48.364;10.904;2024-01-06T04:32:27;11.07;;;3.00;;
22219;SDS011;11279;48.364;10.904;2024-01-06T04:33:27;9.07;;;2.73;;
22219;SDS011;11279;48.364;10.904;2024-01-06T04:34:28;8.00;;;3.03;;
22219;SDS011;11279;48.364;10.904;2024-01-06T04:35:28;10.23;;;3.03;;
22219;SDS011;11279;48.364;10.904;2024-01-06T04:36:29;6.90;;;2.90;;
22219;SDS011;11279;48.364;10.904;2024-01-06T04:37:29;11.53;;;3.67;;
22219;SDS011;11279;48.364;10.904;2024-01-06T04:38:29;6.90;;;3.23;;
22219;SDS011;11279;48.364;10.904;2024-01-06T04:39:30;7.40;;;3.40;;
22219;SDS011;11279;48.364;10.904;2024-01-06T04:40:30;7.47;;;3.40;;
22219;SDS011;11279;48.364;10.904;2024-01-06T04:41:31;8.30;;;3.00;;
22219;SDS011;11279;48.364;10.904;2024-01-06T04:42:31;12.17;;;3.70;;
22219;SDS011;11279;48.364;10.904;2024-01-06T04:43:31;5.87;;;2.77;;
22219;SDS011;11279;48.364;10.904;2024-01-06T04:44:32;8.37;;;3.27;;
22219;SDS011;11279;48.364;10.904;2024-01-06T04:45:32;13.33;;;3.57;;
22219;SDS011;11279;48.364;10.904;2024-01-06T04:46:33;12.10;;;3.80;;
22219;SDS011;11279;48.364;10.904;2024-01-06T04:47:33;10.40;;;3.17;;
22219;SDS011;11279;48.364;10.904;2024-01-06T04:48:34;6.70;;;3.13;;
22219;SDS011;11279;48.364;10.904;2024-01-06T04:49:34;7.80;;;3.00;;
22219;SDS011;11279;48.364;10.904;2024-01-06T04:50:34;6.40;;;3.57;;
22219;SDS011;11279;48.364;10.904;2024-01-06T04:51:35;9.43;;;2.90;;
22219;SDS011;11279;48.364;10.904;2024-01-06T04:52:35;9.80;;;2.90;;
22219;SDS011;11279;48.364;10.904;2024-01-06T04:53:36;6.50;;;2.40;;
22219;SDS011;11279;48.364;10.904;2024-01-06T04:54:36;9.13;;;2.50;;
22219;SDS011;11279;48.364;10.904;2024-01-06T04:55:37;10.03;;;2.20;;
22219;SDS011;11279;48.364;10.904;2024-01-06T04:56:37;10.30;;;2.33;;
22219;SDS011;11279;48.364;10.904;2024-01-06T04:57:38;7.00;;;2.17;;
22219;SDS011;11279;48.364;10.904;2024-01-06T04:58:38;6.03;;;2.20;;
22219;SDS011;11279;48.364;10.904;2024-01-06T04:59:39;8.23;;;2.13;;
22219;SDS011;11279;48.364;10.904;2024-01-06T05:00:39;11.43;;;2.50;;
22219;SDS011;11279;48.364;10.904;2024-01-06T05:01:40;5.97;;;1.87;;
22219;SDS011;11279;48.364;10.904;2024-01-06T05:02:40;7.63;;;2.33;;
22219;SDS011;11279;48.364;10.904;2024-01-06T05:03:41;7.80;;;2.20;;
22219;SDS011;11279;48.364;10.904;2024-01-06T05:04:41;7.43;;;2.13;;
22219;SDS011;11279;48.364;10.904;2024-01-06T05:05:42;6.10;;;2.20;;
22219;SDS011;11279;48.364;10.904;2024-01-06T05:06:42;6.57;;;2.40;;
22219;SDS011;11279;48.364;10.904;2024-01-06T05:07:43;4.83;;;1.80;;
22219;SDS011;11279;48.364;10.904;2024-01-06T05:08:43;6.30;;;2.10;;
22219;SDS011;11279;48.364;10.904;2024-01-06T05:09:44;7.07;;;2.40;;
22219;SDS011;11279;48.364;10.904;2024-01-06T05:10:45;3.63;;;1.70;;
22219;SDS011;11279;48.364;10.904;2024-01-06T05:11:46;6.15;;;2.13;;
22219;SDS011;11279;48.364;10.904;2024-01-06T05:12:47;9.70;;;2.07;;
22219;SDS011;11279;48.364;10.904;2024-01-06T05:13:47;8.50;;;2.67;;
22219;SDS011;11279;48.364;10.904;2024-01-06T05:14:48;8.57;;;2.40;;
22219;SDS011;11279;48.364;10.904;2024-01-06T05:15:48;5.73;;;2.00;;
22219;SDS011;11279;48.364;10.904;2024-01-06T05:16:49;4.33;;;1.80;;
22219;SDS011;11279;48.364;10.904;2024-01-06T05:17:49;3.13;;;1.77;;
22219;SDS011;11279;48.364;10.904;2024-01-06T05:18:49;9.10;;;2.40;;
22219;SDS011;11279;48.364;10.904;2024-01-06T05:19:50;4.53;;;2.10;;
22219;SDS011;11279;48.364;10.904;2024-01-06T05:20:50;9.00;;;2.40;;
22219;SDS011;11279;48.364;10.904;2024-01-06T05:21:50;8.23;;;2.30;;
22219;SDS011;11279;48.364;10.904;2024-01-06T05:22:51;7.23;;;2.70;;
22219;SDS011;11279;48.364;10.904;2024-01-06T05:23:51;5.80;;;2.70;;
22219;SDS011;11279;48.364;10.904;2024-01-06T05:24:52;9.07;;;2.70;;
22219;SDS011;11279;48.364;10.904;2024-01-06T05:25:53;7.25;;;2.55;;
22219;SDS011;11279;48.364;10.904;2024-01-06T05:26:53;8.37;;;2.73;;
22219;SDS011;11279;48.364;10.904;2024-01-06T05:27:54;12.10;;;3.03;;
22219;SDS011;11279;48.364;10.904;2024-01-06T05:28:54;6.43;;;2.57;;
22219;SDS011;11279;48.364;10.904;2024-01-06T05:29:55;7.40;;;2.67;;
22219;SDS011;11279;48.364;10.904;2024-01-06T05:30:55;6.57;;;2.30;;
22219;SDS011;11279;48.364;10.904;2024-01-06T05:31:55;6.03;;;2.27;;
22219;SDS011;11279;48.364;10.904;2024-01-06T05:32:56;9.73;;;2.13;;
22219;SDS011;11279;48.364;10.904;2024-01-06T05:33:56;4.60;;;2.70;;
22219;SDS011;11279;48.364;10.904;2024-01-06T05:34:57;6.47;;;2.73;;
22219;SDS011;11279;48.364;10.904;2024-01-06T05:35:57;7.07;;;2.30;;
22219;SDS011;11279;48.364;10.904;2024-01-06T05:36:58;9.17;;;2.67;;
22219;SDS011;11279;48.364;10.904;2024-01-06T05:37:58;7.30;;;2.63;;
22219;SDS011;11279;48.364;10.904;2024-01-06T05:38:58;5.10;;;2.20;;
22219;SDS011;11279;48.364;10.904;2024-01-06T05:40:00;8.73;;;2.60;;
22219;SDS011;11279;48.364;10.904;2024-01-06T05:41:04;8.40;;;2.80;;
22219;SDS011;11279;48.364;10.904;2024-01-06T05:42:05;6.80;;;2.00;;
22219;SDS011;11279;48.364;10.904;2024-01-06T05:43:06;7.25;;;2.20;;
22219;SDS011;11279;48.364;10.904;2024-01-06T05:44:06;5.07;;;2.30;;
22219;SDS011;11279;48.364;10.904;2024-01-06T05:45:09;7.97;;;2.60;;
22219;SDS011;11279;48.364;10.904;2024-01-06T05:46:11;6.45;;;2.30;;
22219;SDS011;11279;48.364;10.904;2024-01-06T05:47:12;6.50;;;2.47;;
22219;SDS011;11279;48.364;10.904;2024-01-06T05:48:12;6.37;;;2.43;;
22219;SDS011;11279;48.364;10.904;2024-01-06T05:49:13;8.73;;;2.60;;
22219;SDS011;11279;48.364;10.904;2024-01-06T05:50:15;9.97;;;2.40;;
22219;SDS011;11279;48.364;10.904;2024-01-06T05:51:15;9.88;;;2.60;;
22219;SDS011;11279;48.364;10.904;2024-01-06T05:52:16;6.27;;;2.50;;
22219;SDS011;11279;48.364;10.904;2024-01-06T05:53:16;8.83;;;2.47;;
22219;SDS011;11279;48.364;10.904;2024-01-06T05:54:18;5.20;;;2.40;;